createdAt,value
2023-01-22T00:00:58.006Z,214.25
2023-01-22T00:03:24.828Z,211.98
2023-01-22T00:05:51.687Z,203.23
2023-01-22T00:08:18.714Z,196.80
2023-01-22T00:10:45.472Z,192.00
2023-01-22T00:13:12.179Z,188.02
2023-01-22T00:15:39.007Z,186.65
2023-01-22T00:18:05.975Z,184.60
2023-01-22T00:20:32.812Z,176.30
2023-01-22T00:22:59.590Z,170.70
2023-01-22T00:25:26.233Z,167.70
2023-01-22T00:27:53.061Z,160.45
2023-01-22T00:30:20.213Z,161.38
2023-01-22T00:32:47.677Z,158.82
2023-01-22T00:35:14.531Z,154.82
2023-01-22T00:37:41.311Z,154.52
2023-01-22T00:40:08.210Z,150.38
2023-01-22T00:42:34.874Z,146.57
2023-01-22T00:45:01.753Z,143.20
2023-01-22T00:47:29.636Z,139.07
2023-01-22T00:49:56.307Z,137.65
2023-01-22T00:52:22.754Z,132.65
2023-01-22T00:54:49.242Z,128.35
2023-01-22T00:57:16.194Z,126.53
2023-01-22T00:59:42.611Z,126.75
2023-01-22T01:02:09.177Z,124.25
2023-01-22T01:04:36.122Z,121.88
2023-01-22T01:07:02.817Z,116.25
2023-01-22T01:09:29.290Z,111.43
2023-01-22T01:11:56.193Z,113.07
2023-01-22T01:14:23.479Z,108.60
2023-01-22T01:16:50.365Z,105.30
2023-01-22T01:19:16.810Z,105.38
2023-01-22T01:21:43.987Z,104.00
2023-01-22T01:24:10.686Z,99.22
2023-01-22T01:26:37.547Z,98.05
2023-01-22T01:29:04.007Z,93.88
2023-01-22T01:31:30.425Z,92.70
2023-01-22T01:33:57.319Z,90.63
2023-01-22T01:36:45.876Z,91.68
2023-01-22T01:39:10.622Z,85.75
2023-01-22T01:41:37.610Z,84.85
2023-01-22T01:44:04.570Z,83.13
2023-01-22T01:46:31.145Z,85.00
2023-01-22T01:48:58.199Z,79.22
2023-01-22T01:51:24.629Z,78.78
2023-01-22T01:53:51.168Z,76.55
2023-01-22T01:56:17.880Z,75.93
2023-01-22T01:58:44.419Z,71.47
2023-01-22T02:01:11.123Z,72.20
2023-01-22T02:03:38.538Z,69.15
2023-01-22T02:06:06.489Z,67.32
2023-01-22T02:08:34.599Z,69.32
2023-01-22T02:11:01.511Z,64.18
2023-01-22T02:13:29.984Z,63.03
2023-01-22T02:15:56.673Z,63.28
2023-01-22T02:18:23.458Z,60.35
2023-01-22T02:20:50.384Z,60.67
2023-01-22T02:23:17.360Z,58.75
2023-01-22T02:25:43.885Z,58.53
2023-01-22T02:28:10.429Z,57.15
2023-01-22T02:30:37.085Z,57.28
2023-01-22T02:33:04.082Z,54.20
2023-01-22T02:35:30.500Z,53.33
2023-01-22T02:37:56.957Z,52.90
2023-01-22T02:40:23.364Z,51.75
2023-01-22T02:42:49.992Z,50.28
2023-01-22T02:45:16.419Z,48.45
2023-01-22T02:47:42.845Z,46.40
2023-01-22T02:50:09.657Z,46.78
2023-01-22T02:52:36.112Z,45.55
2023-01-22T02:55:02.761Z,44.80
2023-01-22T02:57:29.200Z,43.30
2023-01-22T02:59:55.888Z,43.97
2023-01-22T03:02:22.383Z,43.42
2023-01-22T03:04:49.372Z,41.08
2023-01-22T03:07:16.222Z,39.95
2023-01-22T03:09:43.081Z,38.80
2023-01-22T03:12:09.592Z,39.50
2023-01-22T03:14:37.900Z,37.97
2023-01-22T03:17:04.772Z,37.38
2023-01-22T03:19:32.233Z,36.25
2023-01-22T03:21:58.840Z,34.88
2023-01-22T03:24:26.140Z,36.78
2023-01-22T03:26:52.894Z,35.15
2023-01-22T03:29:19.714Z,34.50
2023-01-22T03:31:46.815Z,32.03
2023-01-22T03:34:13.671Z,33.10
2023-01-22T03:36:40.294Z,32.00
2023-01-22T03:39:07.197Z,31.73
2023-01-22T03:41:33.570Z,30.92
2023-01-22T03:43:59.983Z,31.92
2023-01-22T03:46:26.743Z,29.05
2023-01-22T03:48:53.133Z,29.35
2023-01-22T03:51:19.683Z,28.38
2023-01-22T03:53:46.688Z,27.73
2023-01-22T03:56:13.588Z,28.70
2023-01-22T03:58:40.026Z,28.73
2023-01-22T04:01:06.623Z,26.88
2023-01-22T04:03:34.665Z,25.63
2023-01-22T04:06:01.463Z,25.77
2023-01-22T04:08:29.319Z,25.25
2023-01-22T04:10:56.769Z,24.67
2023-01-22T04:13:24.607Z,23.58
2023-01-22T04:15:51.901Z,24.08
2023-01-22T04:18:19.463Z,24.10
2023-01-22T04:20:46.025Z,24.02
2023-01-22T04:23:13.575Z,23.23
2023-01-22T04:25:41.788Z,24.17
2023-01-22T04:28:08.984Z,22.10
2023-01-22T04:30:35.748Z,22.25
2023-01-22T04:33:02.888Z,20.05
2023-01-22T04:35:29.769Z,21.00
2023-01-22T04:37:56.785Z,21.63
2023-01-22T04:40:23.535Z,21.15
2023-01-22T04:42:50.037Z,19.33
2023-01-22T04:45:16.560Z,20.77
2023-01-22T04:47:43.194Z,18.85
2023-01-22T04:50:09.768Z,18.48
2023-01-22T04:52:36.639Z,19.85
2023-01-22T04:55:03.093Z,18.38
2023-01-22T04:57:29.813Z,17.67
2023-01-22T04:59:56.310Z,16.98
2023-01-22T05:02:22.734Z,17.90
2023-01-22T05:04:49.205Z,16.25
2023-01-22T05:07:15.756Z,16.52
2023-01-22T05:09:42.409Z,16.63
2023-01-22T05:12:09.036Z,17.02
2023-01-22T05:14:35.440Z,15.60
2023-01-22T05:17:02.051Z,15.00
2023-01-22T05:19:28.526Z,15.70
2023-01-22T05:21:55.125Z,15.48
2023-01-22T05:24:21.579Z,16.20
2023-01-22T05:26:48.183Z,14.45
2023-01-22T05:29:15.190Z,15.57
2023-01-22T05:31:41.920Z,15.27
2023-01-22T05:34:08.549Z,14.82
2023-01-22T05:36:35.998Z,14.13
2023-01-22T05:39:02.786Z,14.05
2023-01-22T05:41:30.061Z,13.43
2023-01-22T05:43:56.622Z,13.57
2023-01-22T05:46:23.368Z,13.10
2023-01-22T05:48:50.341Z,13.77
2023-01-22T05:51:17.075Z,12.35
2023-01-22T05:53:43.785Z,14.57
2023-01-22T05:56:10.411Z,12.85
2023-01-22T05:58:37.290Z,11.95
2023-01-22T06:01:03.803Z,12.65
2023-01-22T06:03:30.367Z,12.18
2023-01-22T06:05:57.105Z,12.13
2023-01-22T06:08:23.623Z,11.95
2023-01-22T06:10:50.594Z,11.70
2023-01-22T06:13:17.435Z,11.10
2023-01-22T06:15:44.196Z,11.30
2023-01-22T06:18:10.846Z,11.65
2023-01-22T06:20:37.380Z,11.93
2023-01-22T06:23:04.068Z,11.65
2023-01-22T06:25:30.930Z,12.02
2023-01-22T06:27:57.811Z,12.15
2023-01-22T06:30:24.173Z,11.65
2023-01-22T06:32:50.676Z,11.27
2023-01-22T06:35:17.616Z,10.60
2023-01-22T06:37:44.525Z,10.45
2023-01-22T06:40:11.040Z,11.85
2023-01-22T06:42:37.960Z,9.80
2023-01-22T06:45:04.683Z,10.80
2023-01-22T06:47:31.197Z,10.45
2023-01-22T06:49:57.922Z,9.63
2023-01-22T06:52:24.913Z,9.68
2023-01-22T06:54:51.940Z,10.82
2023-01-22T06:57:18.320Z,10.45
2023-01-22T06:59:44.848Z,9.70
2023-01-22T07:02:11.255Z,9.23
2023-01-22T07:04:37.672Z,10.35
2023-01-22T07:07:04.416Z,9.80
2023-01-22T07:09:31.000Z,11.32
2023-01-22T07:11:57.471Z,9.23
2023-01-22T07:14:36.435Z,8.93
2023-01-22T07:17:03.407Z,9.03
2023-01-22T07:19:29.935Z,9.35
2023-01-22T07:21:56.279Z,8.52
2023-01-22T07:24:22.546Z,8.27
2023-01-22T07:26:48.913Z,8.75
2023-01-22T07:29:15.329Z,9.50
2023-01-22T07:31:41.905Z,8.65
2023-01-22T07:34:08.430Z,10.32
2023-01-22T07:36:35.264Z,9.50
2023-01-22T07:39:01.622Z,10.13
2023-01-22T07:41:28.126Z,10.50
2023-01-22T07:43:55.458Z,12.88
2023-01-22T07:46:22.179Z,9.63
2023-01-22T07:48:49.002Z,9.70
2023-01-22T07:51:15.615Z,10.25
2023-01-22T07:53:42.758Z,10.20
2023-01-22T07:56:09.184Z,8.75
2023-01-22T07:58:36.004Z,11.35
2023-01-22T08:01:02.522Z,10.10
2023-01-22T08:03:29.250Z,10.48
2023-01-22T08:05:56.075Z,9.15
2023-01-22T08:08:22.846Z,10.25
2023-01-22T08:10:49.790Z,8.95
2023-01-22T08:13:16.193Z,10.10
2023-01-22T08:15:42.754Z,8.85
2023-01-22T08:18:09.489Z,9.75
2023-01-22T08:20:36.331Z,8.95
2023-01-22T08:23:02.915Z,9.05
2023-01-22T08:25:29.304Z,8.05
2023-01-22T08:27:55.822Z,10.60
2023-01-22T08:30:22.469Z,9.02
2023-01-22T08:32:48.883Z,9.60
2023-01-22T08:35:15.497Z,8.52
2023-01-22T08:37:41.924Z,9.38
2023-01-22T08:40:08.913Z,9.15
2023-01-22T08:42:35.418Z,9.35
2023-01-22T08:45:01.982Z,10.23
2023-01-22T08:47:29.011Z,9.27
2023-01-22T08:49:55.395Z,9.95
2023-01-22T08:52:21.884Z,8.85
2023-01-22T08:54:48.302Z,8.82
2023-01-22T08:57:14.711Z,9.05
2023-01-22T08:59:43.061Z,7.85
2023-01-22T09:02:11.748Z,9.45
2023-01-22T09:04:40.356Z,7.47
2023-01-22T09:07:06.797Z,8.50
2023-01-22T09:09:33.179Z,9.13
2023-01-22T09:11:59.610Z,8.43
2023-01-22T09:14:26.111Z,8.70
2023-01-22T09:16:52.549Z,8.68
2023-01-22T09:19:19.047Z,8.90
2023-01-22T09:21:45.510Z,8.45
2023-01-22T09:24:11.891Z,8.70
2023-01-22T09:26:38.725Z,9.57
2023-01-22T09:29:05.579Z,9.90
2023-01-22T09:31:32.812Z,9.45
2023-01-22T09:33:59.817Z,9.32
2023-01-22T09:36:26.154Z,9.48
2023-01-22T09:38:52.622Z,377.98
2023-01-22T09:41:19.047Z,221.00
2023-01-22T09:43:45.710Z,115.70
2023-01-22T09:46:12.320Z,102.95
2023-01-22T09:48:39.405Z,89.85
2023-01-22T09:51:05.804Z,84.10
2023-01-22T09:53:32.987Z,78.10
2023-01-22T09:55:59.830Z,78.10
2023-01-22T09:58:26.324Z,182.60
2023-01-22T10:00:52.901Z,214.18
2023-01-22T10:03:21.346Z,176.43
2023-01-22T10:05:49.421Z,163.75
2023-01-22T10:08:16.483Z,290.17
2023-01-22T10:10:43.916Z,314.02
2023-01-22T10:13:10.317Z,273.02
2023-01-22T10:15:36.856Z,250.63
2023-01-22T10:18:03.956Z,235.98
2023-01-22T10:20:31.136Z,214.10
2023-01-22T10:22:57.586Z,203.85
2023-01-22T10:25:23.961Z,190.30
2023-01-22T10:27:50.854Z,183.50
2023-01-22T10:30:17.802Z,168.32
2023-01-22T10:32:44.446Z,188.50
2023-01-22T10:35:11.239Z,248.60
2023-01-22T10:37:37.720Z,263.67
2023-01-22T10:40:04.332Z,255.60
2023-01-22T10:42:31.017Z,236.43
2023-01-22T10:44:57.792Z,223.45
2023-01-22T10:47:24.604Z,201.02
2023-01-22T10:49:51.207Z,181.50
2023-01-22T10:52:17.574Z,177.18
2023-01-22T10:54:44.295Z,165.15
2023-01-22T10:57:11.108Z,151.70
2023-01-22T10:59:37.755Z,143.27
2023-01-22T11:02:04.675Z,138.98
2023-01-22T11:04:31.321Z,274.08
2023-01-22T11:06:57.708Z,256.92
2023-01-22T11:09:26.452Z,236.35
2023-01-22T11:11:53.230Z,215.88
2023-01-22T11:14:19.551Z,178.07
2023-01-22T11:16:46.931Z,152.98
2023-01-22T11:19:14.075Z,129.93
2023-01-22T11:21:41.103Z,110.80
2023-01-22T11:24:07.944Z,128.10
2023-01-22T11:26:35.251Z,228.95
2023-01-22T11:29:02.316Z,200.75
2023-01-22T11:31:29.286Z,189.90
2023-01-22T11:33:56.261Z,173.57
2023-01-22T11:36:22.658Z,158.40
2023-01-22T11:38:49.602Z,148.80
2023-01-22T11:41:16.239Z,143.15
2023-01-22T11:43:42.606Z,138.00
2023-01-22T11:46:09.585Z,129.32
2023-01-22T11:48:36.331Z,177.10
2023-01-22T11:51:03.225Z,208.57
2023-01-22T11:53:29.658Z,225.80
2023-01-22T11:55:55.971Z,197.13
2023-01-22T11:58:22.616Z,179.95
2023-01-22T12:00:49.043Z,175.48
2023-01-22T12:03:15.701Z,293.88
2023-01-22T12:05:42.440Z,276.90
2023-01-22T12:08:09.341Z,253.68
2023-01-22T12:10:35.884Z,236.63
2023-01-22T12:13:02.653Z,215.57
2023-01-22T12:15:29.275Z,199.75
2023-01-22T12:17:55.923Z,191.18
2023-01-22T12:20:22.731Z,173.98
2023-01-22T12:22:49.108Z,138.30
2023-01-22T12:25:15.904Z,240.52
2023-01-22T12:27:43.294Z,247.07
2023-01-22T12:30:09.771Z,244.80
2023-01-22T12:32:36.623Z,229.73
2023-01-22T12:35:03.466Z,213.85
2023-01-22T12:37:30.239Z,198.82
2023-01-22T12:39:57.006Z,178.00
2023-01-22T12:42:23.548Z,173.35
2023-01-22T12:44:49.933Z,156.93
2023-01-22T12:47:17.098Z,150.00
2023-01-22T12:49:43.673Z,144.20
2023-01-22T12:52:10.364Z,138.93
2023-01-22T12:54:37.693Z,149.20
2023-01-22T12:57:04.116Z,174.40
2023-01-22T12:59:30.793Z,217.23
2023-01-22T13:01:57.644Z,269.80
2023-01-22T13:04:24.142Z,243.73
2023-01-22T13:06:50.857Z,223.30
2023-01-22T13:09:18.148Z,210.02
2023-01-22T13:11:45.242Z,188.00
2023-01-22T13:14:15.047Z,176.55
2023-01-22T13:16:41.974Z,263.17
2023-01-22T13:19:08.797Z,315.38
2023-01-22T13:21:35.542Z,274.33
2023-01-22T13:24:02.059Z,257.30
2023-01-22T13:26:28.462Z,233.57
2023-01-22T13:28:55.201Z,222.80
2023-01-22T13:31:22.083Z,214.43
2023-01-22T13:33:48.838Z,324.33
2023-01-22T13:36:15.296Z,352.75
2023-01-22T13:38:41.799Z,325.13
2023-01-22T13:41:08.178Z,303.63
2023-01-22T13:43:34.918Z,273.98
2023-01-22T13:46:01.698Z,266.65
2023-01-22T13:48:28.269Z,249.60
2023-01-22T13:50:54.994Z,232.98
2023-01-22T13:53:21.546Z,213.85
2023-01-22T13:55:48.101Z,206.40
2023-01-22T13:58:15.271Z,200.18
2023-01-22T14:00:42.335Z,187.82
2023-01-22T14:03:09.120Z,179.93
2023-01-22T14:05:35.986Z,173.68
2023-01-22T14:08:02.644Z,161.57
2023-01-22T14:10:29.119Z,149.00
2023-01-22T14:12:55.777Z,144.98
2023-01-22T14:15:22.507Z,143.43
2023-01-22T14:17:50.655Z,186.35
2023-01-22T14:20:17.870Z,230.80
2023-01-22T14:22:44.413Z,254.07
2023-01-22T14:25:11.000Z,220.60
2023-01-22T14:27:38.056Z,202.73
2023-01-22T14:30:04.496Z,182.32
2023-01-22T14:32:31.482Z,179.80
2023-01-22T14:34:58.262Z,163.57
2023-01-22T14:37:24.908Z,152.90
2023-01-22T14:39:51.678Z,150.50
2023-01-22T14:42:18.421Z,139.30
2023-01-22T14:44:45.621Z,130.30
2023-01-22T14:47:12.504Z,124.20
2023-01-22T14:49:39.276Z,119.20
2023-01-22T14:52:06.457Z,164.77
2023-01-22T14:54:32.961Z,215.68
2023-01-22T14:56:59.815Z,248.68
2023-01-22T14:59:26.939Z,212.52
2023-01-22T15:01:53.483Z,199.95
2023-01-22T15:04:20.254Z,188.20
2023-01-22T15:06:46.830Z,180.90
2023-01-22T15:09:13.627Z,170.23
2023-01-22T15:11:40.230Z,156.85
2023-01-22T15:14:07.061Z,202.25
2023-01-22T15:16:33.693Z,252.45
2023-01-22T15:19:00.111Z,312.13
2023-01-22T15:21:26.699Z,263.73
2023-01-22T15:23:53.682Z,249.20
2023-01-22T15:26:20.169Z,229.65
2023-01-22T15:28:46.786Z,218.05
2023-01-22T15:31:13.523Z,213.48
2023-01-22T15:33:40.108Z,198.93
2023-01-22T15:36:06.682Z,231.18
2023-01-22T15:38:33.169Z,278.98
2023-01-22T15:40:59.553Z,389.35
2023-01-22T15:43:26.054Z,400.25
2023-01-22T15:45:52.772Z,379.02
2023-01-22T15:48:19.741Z,356.42
2023-01-22T15:50:46.288Z,330.88
2023-01-22T15:53:12.889Z,397.75
2023-01-22T15:55:39.348Z,422.92
2023-01-22T15:58:05.887Z,414.83
2023-01-22T16:00:32.315Z,402.38
2023-01-22T16:02:59.364Z,385.98
2023-01-22T16:05:25.810Z,375.33
2023-01-22T16:07:52.725Z,358.80
2023-01-22T16:10:19.371Z,360.58
2023-01-22T16:12:46.173Z,347.08
2023-01-22T16:15:13.009Z,342.92
2023-01-22T16:17:39.858Z,328.90
2023-01-22T16:20:06.439Z,322.27
2023-01-22T16:22:33.294Z,316.92
2023-01-22T16:24:59.695Z,315.38
2023-01-22T16:27:26.162Z,308.23
2023-01-22T16:29:53.175Z,301.65
2023-01-22T16:32:19.892Z,289.50
2023-01-22T16:34:47.233Z,286.80
2023-01-22T16:37:13.624Z,283.20
2023-01-22T16:39:40.167Z,280.80
2023-01-22T16:42:06.813Z,273.55
2023-01-22T16:44:33.849Z,271.27
2023-01-22T16:47:00.305Z,262.98
2023-01-22T16:49:26.827Z,256.63
2023-01-22T16:51:53.295Z,258.08
2023-01-22T16:54:20.278Z,252.00
2023-01-22T16:56:46.603Z,241.05
2023-01-22T16:59:13.689Z,244.38
2023-01-22T17:01:41.395Z,223.23
2023-01-22T17:04:08.056Z,233.15
2023-01-22T17:06:34.989Z,228.05
2023-01-22T17:09:01.571Z,221.40
2023-01-22T17:11:28.076Z,213.30
2023-01-22T17:13:54.910Z,209.65
2023-01-22T17:16:21.810Z,207.50
2023-01-22T17:18:48.430Z,200.52
2023-01-22T17:21:15.130Z,202.52
2023-01-22T17:23:42.238Z,198.75
2023-01-22T17:26:08.632Z,193.40
2023-01-22T17:28:35.030Z,187.32
2023-01-22T17:31:01.561Z,182.93
2023-01-22T17:33:28.434Z,178.95
2023-01-22T17:35:55.351Z,173.25
2023-01-22T17:38:22.211Z,174.57
2023-01-22T17:40:48.643Z,168.68
2023-01-22T17:43:15.414Z,162.82
2023-01-22T17:45:42.529Z,164.90
2023-01-22T17:48:09.817Z,159.10
2023-01-22T17:50:36.560Z,154.40
2023-01-22T17:53:03.402Z,150.57
2023-01-22T17:55:29.927Z,150.88
2023-01-22T17:57:56.455Z,146.75
2023-01-22T18:00:23.249Z,143.15
2023-01-22T18:02:50.373Z,139.15
2023-01-22T18:05:17.102Z,139.75
2023-01-22T18:07:43.749Z,136.20
2023-01-22T18:10:10.713Z,132.00
2023-01-22T18:12:37.325Z,133.35
2023-01-22T18:15:03.913Z,132.98
2023-01-22T18:17:30.370Z,119.72
2023-01-22T18:19:57.361Z,120.57
2023-01-22T18:22:24.536Z,122.57
2023-01-22T18:24:50.989Z,118.47
2023-01-22T18:27:17.537Z,117.57
2023-01-22T18:29:43.985Z,113.65
2023-01-22T18:32:10.886Z,114.65
2023-01-22T18:34:37.351Z,110.00
2023-01-22T18:37:03.863Z,107.75
2023-01-22T18:39:30.271Z,106.93
2023-01-22T18:41:57.157Z,105.82
2023-01-22T18:44:24.291Z,102.13
2023-01-22T18:46:51.088Z,97.72
2023-01-22T18:49:17.755Z,99.00
2023-01-22T18:51:44.736Z,98.25
2023-01-22T18:54:11.594Z,96.65
2023-01-22T18:56:38.290Z,93.53
2023-01-22T18:59:04.836Z,93.03
2023-01-22T19:01:31.342Z,87.20
2023-01-22T19:03:57.795Z,87.45
2023-01-22T19:06:24.442Z,87.05
2023-01-22T19:08:51.575Z,89.90
2023-01-22T19:11:18.040Z,86.20
2023-01-22T19:13:44.650Z,82.65
2023-01-22T19:16:11.690Z,81.22
2023-01-22T19:18:38.415Z,78.47
2023-01-22T19:21:05.374Z,81.55
2023-01-22T19:23:32.037Z,77.50
2023-01-22T19:25:58.775Z,78.78
2023-01-22T19:28:25.687Z,77.70
2023-01-22T19:30:52.342Z,73.00
2023-01-22T19:33:18.763Z,75.55
2023-01-22T19:35:45.103Z,71.95
2023-01-22T19:38:11.646Z,69.03
2023-01-22T19:40:38.137Z,65.63
2023-01-22T19:43:05.223Z,68.25
2023-01-22T19:45:31.637Z,68.53
2023-01-22T19:47:58.043Z,66.60
2023-01-22T19:50:24.725Z,66.50
2023-01-22T19:52:51.507Z,61.20
2023-01-22T19:55:18.200Z,63.15
2023-01-22T19:57:44.822Z,64.55
2023-01-22T20:00:11.442Z,58.92
2023-01-22T20:02:38.125Z,60.10
2023-01-22T20:05:05.262Z,59.72
2023-01-22T20:07:32.308Z,57.05
2023-01-22T20:09:58.739Z,54.78
2023-01-22T20:12:25.306Z,57.70
2023-01-22T20:14:52.138Z,58.28
2023-01-22T20:17:18.594Z,54.03
2023-01-22T20:19:44.972Z,53.75
2023-01-22T20:22:11.560Z,52.25
2023-01-22T20:24:38.285Z,55.95
2023-01-22T20:27:05.144Z,51.90
2023-01-22T20:29:31.504Z,51.10
2023-01-22T20:31:58.225Z,49.78
2023-01-22T20:34:25.990Z,52.67
2023-01-22T20:36:53.035Z,47.58
2023-01-22T20:39:19.524Z,51.00
2023-01-22T20:41:45.927Z,47.20
2023-01-22T20:44:12.655Z,47.05
2023-01-22T20:46:38.978Z,48.08
2023-01-22T20:49:05.393Z,46.35
2023-01-22T20:51:32.214Z,47.20
2023-01-22T20:53:59.108Z,45.65
2023-01-22T20:56:25.553Z,46.97
2023-01-22T20:58:52.761Z,44.53
2023-01-22T21:01:19.289Z,43.15
2023-01-22T21:03:45.687Z,41.08
2023-01-22T21:06:14.005Z,44.42
2023-01-22T21:08:41.236Z,38.50
2023-01-22T21:11:07.824Z,42.80
2023-01-22T21:13:34.650Z,41.83
2023-01-22T21:16:01.159Z,40.92
2023-01-22T21:18:27.576Z,39.90
2023-01-22T21:20:54.377Z,40.10
2023-01-22T21:23:21.289Z,38.67
2023-01-22T21:25:47.826Z,39.58
2023-01-22T21:28:14.399Z,37.30
2023-01-22T21:30:41.058Z,39.55
2023-01-22T21:33:07.751Z,37.88
2023-01-22T21:35:34.963Z,36.30
2023-01-22T21:38:01.462Z,38.55
2023-01-22T21:40:28.308Z,35.88
2023-01-22T21:42:55.406Z,35.03
2023-01-22T21:45:22.191Z,34.05
2023-01-22T21:47:48.848Z,34.75
2023-01-22T21:50:16.003Z,35.63
2023-01-22T21:52:44.926Z,33.88
2023-01-22T21:55:12.161Z,34.20
2023-01-22T21:57:38.953Z,33.08
2023-01-22T22:00:05.889Z,33.20
2023-01-22T22:02:33.077Z,31.20
2023-01-22T22:04:59.780Z,30.73
2023-01-22T22:07:26.397Z,32.85
2023-01-22T22:09:53.162Z,31.10
2023-01-22T22:12:19.533Z,32.17
2023-01-22T22:14:46.482Z,31.17
2023-01-22T22:17:13.105Z,32.88
2023-01-22T22:19:39.573Z,31.77
2023-01-22T22:22:06.375Z,31.58
2023-01-22T22:24:33.228Z,30.60
2023-01-22T22:27:00.243Z,28.65
2023-01-22T22:29:27.424Z,30.05
2023-01-22T22:31:54.771Z,29.52
2023-01-22T22:34:21.494Z,31.63
2023-01-22T22:36:48.218Z,30.83
2023-01-22T22:39:14.744Z,29.77
2023-01-22T22:41:41.249Z,30.35
2023-01-22T22:44:07.789Z,27.30
2023-01-22T22:46:34.346Z,27.73
2023-01-22T22:49:01.264Z,28.13
2023-01-22T22:51:27.724Z,28.00
2023-01-22T22:53:54.844Z,26.92
2023-01-22T22:56:21.817Z,27.77
2023-01-22T22:58:48.724Z,26.95
2023-01-22T23:01:15.398Z,25.83
2023-01-22T23:03:41.972Z,26.77
2023-01-22T23:06:08.520Z,25.17
2023-01-22T23:08:35.246Z,27.15
2023-01-22T23:11:02.066Z,26.88
2023-01-22T23:13:28.537Z,25.20
2023-01-22T23:15:55.731Z,25.48
2023-01-22T23:18:22.612Z,26.58
2023-01-22T23:20:49.149Z,25.45
2023-01-22T23:23:16.112Z,24.92
2023-01-22T23:25:42.771Z,26.20
2023-01-22T23:28:09.254Z,27.10
2023-01-22T23:30:36.023Z,27.02
2023-01-22T23:33:02.779Z,23.95
2023-01-22T23:35:29.230Z,26.08
2023-01-22T23:37:55.669Z,23.27
2023-01-22T23:40:22.271Z,26.20
2023-01-22T23:42:48.952Z,22.30
2023-01-22T23:45:15.734Z,23.27
2023-01-22T23:47:42.609Z,23.90
2023-01-22T23:50:08.952Z,22.77
2023-01-22T23:52:35.703Z,23.65
2023-01-22T23:55:02.533Z,23.73
2023-01-22T23:57:28.859Z,24.10
2023-01-22T23:59:55.842Z,24.48
